createdAt,value
2023-10-20T00:00:16.022Z,13.57
2023-10-20T00:02:44.576Z,13.70
2023-10-20T00:05:15.334Z,14.50
2023-10-20T00:07:43.154Z,13.70
2023-10-20T00:10:12.865Z,14.13
2023-10-20T00:12:41.253Z,13.60
2023-10-20T00:15:15.002Z,14.13
2023-10-20T00:17:43.846Z,15.65
2023-10-20T00:20:14.012Z,14.18
2023-10-20T00:22:42.649Z,13.18
2023-10-20T00:25:13.050Z,13.68
2023-10-20T00:27:42.403Z,12.77
2023-10-20T00:30:12.554Z,12.98
2023-10-20T00:32:41.525Z,13.93
2023-10-20T00:35:10.753Z,14.00
2023-10-20T00:37:40.261Z,13.88
2023-10-20T00:40:11.023Z,13.60
2023-10-20T00:42:39.615Z,12.18
2023-10-20T00:45:09.507Z,12.40
2023-10-20T00:47:40.507Z,12.90
2023-10-20T00:50:12.777Z,12.00
2023-10-20T00:52:45.183Z,14.05
2023-10-20T00:55:15.887Z,14.05
2023-10-20T00:57:45.715Z,13.45
2023-10-20T01:00:15.150Z,14.13
2023-10-20T01:02:43.261Z,13.30
2023-10-20T01:05:16.194Z,13.27
2023-10-20T01:07:45.954Z,13.43
2023-10-20T01:10:15.086Z,13.10
2023-10-20T01:12:43.033Z,14.30
2023-10-20T01:15:12.370Z,14.70
2023-10-20T01:17:40.682Z,13.23
2023-10-20T01:20:10.273Z,14.98
2023-10-20T01:22:37.975Z,14.90
2023-10-20T01:25:08.262Z,16.38
2023-10-20T01:27:36.649Z,14.73
2023-10-20T01:30:04.924Z,14.38
2023-10-20T01:32:32.760Z,16.88
2023-10-20T01:35:01.382Z,18.25
2023-10-20T01:37:29.737Z,17.10
2023-10-20T01:39:57.607Z,15.50
2023-10-20T01:42:26.982Z,18.70
2023-10-20T01:44:54.659Z,15.23
2023-10-20T01:47:22.319Z,18.35
2023-10-20T01:49:50.766Z,17.42
2023-10-20T01:52:18.894Z,16.30
2023-10-20T01:54:47.213Z,16.67
2023-10-20T01:57:14.922Z,16.38
2023-10-20T01:59:43.880Z,16.27
2023-10-20T02:02:12.770Z,17.80
2023-10-20T02:04:40.475Z,17.15
2023-10-20T02:07:08.200Z,15.80
2023-10-20T02:09:35.929Z,16.77
2023-10-20T02:12:05.227Z,16.85
2023-10-20T02:14:34.395Z,14.98
2023-10-20T02:17:03.849Z,15.02
2023-10-20T02:19:32.190Z,16.40
2023-10-20T02:22:00.993Z,16.15
2023-10-20T02:24:29.149Z,14.82
2023-10-20T02:26:56.949Z,15.32
2023-10-20T02:29:24.887Z,14.82
2023-10-20T02:31:52.897Z,15.48
2023-10-20T02:34:22.058Z,17.33
2023-10-20T02:36:50.430Z,15.95
2023-10-20T02:39:18.348Z,15.48
2023-10-20T02:41:46.353Z,15.57
2023-10-20T02:44:15.019Z,16.55
2023-10-20T02:46:43.182Z,15.77
2023-10-20T02:49:11.164Z,16.65
2023-10-20T02:51:40.577Z,17.77
2023-10-20T02:54:11.065Z,17.02
2023-10-20T02:56:38.993Z,17.27
2023-10-20T02:59:06.741Z,18.23
2023-10-20T03:01:34.435Z,17.52
2023-10-20T03:04:02.364Z,15.68
2023-10-20T03:06:30.137Z,16.13
2023-10-20T03:08:59.231Z,18.77
2023-10-20T03:11:27.042Z,17.23
2023-10-20T03:13:54.774Z,17.65
2023-10-20T03:16:22.495Z,18.42
2023-10-20T03:18:50.198Z,18.27
2023-10-20T03:21:21.836Z,17.33
2023-10-20T03:23:49.465Z,16.75
2023-10-20T03:26:20.231Z,17.67
2023-10-20T03:28:48.024Z,18.05
2023-10-20T03:31:16.478Z,19.08
2023-10-20T03:33:44.240Z,16.60
2023-10-20T03:36:13.438Z,19.27
2023-10-20T03:38:42.170Z,18.00
2023-10-20T03:41:11.500Z,17.75
2023-10-20T03:43:40.635Z,17.88
2023-10-20T03:46:08.338Z,18.25
2023-10-20T03:48:36.930Z,17.85
2023-10-20T03:51:08.768Z,18.52
2023-10-20T03:53:47.413Z,16.92
2023-10-20T03:56:16.626Z,18.05
2023-10-20T03:58:47.771Z,21.38
2023-10-20T04:01:16.353Z,20.45
2023-10-20T04:03:51.691Z,20.40
2023-10-20T04:06:20.333Z,21.70
2023-10-20T04:08:48.293Z,20.95
2023-10-20T04:11:15.967Z,20.42
2023-10-20T04:13:45.437Z,19.92
2023-10-20T04:16:14.903Z,21.77
2023-10-20T04:18:43.677Z,20.10
2023-10-20T04:21:13.337Z,20.48
2023-10-20T04:23:41.470Z,20.98
2023-10-20T04:26:20.401Z,20.90
2023-10-20T04:29:03.890Z,23.67
2023-10-20T04:31:49.746Z,22.42
2023-10-20T04:34:35.218Z,25.05
2023-10-20T04:37:20.715Z,25.48
2023-10-20T04:40:06.106Z,23.73
2023-10-20T04:42:56.753Z,23.30
2023-10-20T04:48:32.843Z,22.63
2023-10-20T04:51:10.648Z,23.10
2023-10-20T04:53:49.943Z,25.38
2023-10-20T04:56:32.400Z,22.98
2023-10-20T04:59:05.844Z,24.52
2023-10-20T05:01:44.588Z,24.92
2023-10-20T05:04:17.516Z,26.40
2023-10-20T05:06:46.185Z,24.35
2023-10-20T05:09:16.749Z,23.85
2023-10-20T05:14:12.187Z,26.00
2023-10-20T05:16:41.408Z,25.65
2023-10-20T05:19:09.115Z,24.52
2023-10-20T05:21:39.424Z,25.45
2023-10-20T05:24:09.514Z,25.83
2023-10-20T05:26:37.429Z,22.10
2023-10-20T05:29:05.299Z,25.92
2023-10-20T05:31:33.367Z,25.30
2023-10-20T05:34:03.463Z,26.48
2023-10-20T05:36:31.953Z,25.02
2023-10-20T05:39:00.925Z,24.05
2023-10-20T05:41:31.501Z,25.63
2023-10-20T05:43:59.415Z,23.83
2023-10-20T05:46:27.195Z,25.20
2023-10-20T05:48:55.451Z,25.30
2023-10-20T05:51:25.123Z,23.95
2023-10-20T05:53:54.403Z,24.60
2023-10-20T05:56:22.431Z,24.13
2023-10-20T05:58:51.243Z,24.63
2023-10-20T06:01:19.544Z,22.67
2023-10-20T06:03:47.773Z,23.20
2023-10-20T06:06:15.748Z,24.45
2023-10-20T06:08:45.159Z,23.95
2023-10-20T06:11:13.090Z,23.52
2023-10-20T06:13:40.908Z,24.58
2023-10-20T06:16:11.756Z,23.23
2023-10-20T06:18:41.022Z,23.15
2023-10-20T06:21:14.074Z,24.48
2023-10-20T06:23:42.514Z,23.02
2023-10-20T06:26:12.286Z,24.10
2023-10-20T06:28:40.163Z,24.60
2023-10-20T06:31:28.875Z,24.42
2023-10-20T06:34:01.923Z,24.05
2023-10-20T06:36:30.058Z,25.35
2023-10-20T06:38:57.912Z,22.60
2023-10-20T06:41:27.938Z,26.10
2023-10-20T06:43:55.967Z,25.77
2023-10-20T06:46:26.265Z,24.75
2023-10-20T06:48:53.972Z,25.38
2023-10-20T06:51:21.725Z,26.83
2023-10-20T06:53:49.975Z,25.05
2023-10-20T06:56:22.091Z,26.90
2023-10-20T06:58:56.305Z,26.88
2023-10-20T07:01:24.021Z,25.52
2023-10-20T07:03:51.880Z,26.85
2023-10-20T07:06:19.981Z,26.17
2023-10-20T07:08:49.567Z,26.75
2023-10-20T07:11:17.684Z,26.60
2023-10-20T07:13:45.987Z,26.75
2023-10-20T07:16:15.356Z,25.30
2023-10-20T07:18:44.111Z,26.23
2023-10-20T07:21:13.080Z,26.20
2023-10-20T07:23:40.748Z,25.00
2023-10-20T07:26:08.706Z,24.88
2023-10-20T07:28:36.622Z,24.42
2023-10-20T07:31:13.436Z,25.08
2023-10-20T07:33:42.963Z,24.35
2023-10-20T07:36:12.119Z,25.45
2023-10-20T07:38:40.587Z,25.08
2023-10-20T07:41:12.445Z,24.33
2023-10-20T07:43:40.569Z,24.83
2023-10-20T07:46:16.626Z,22.52
2023-10-20T07:48:46.148Z,25.70
2023-10-20T07:51:14.099Z,24.95
2023-10-20T07:53:42.288Z,25.92
2023-10-20T07:56:11.008Z,24.10
2023-10-20T07:58:38.856Z,25.23
2023-10-20T08:01:07.841Z,26.02
2023-10-20T08:03:36.023Z,26.00
2023-10-20T08:06:06.940Z,25.48
2023-10-20T08:08:35.663Z,24.55
2023-10-20T08:11:07.857Z,24.23
2023-10-20T08:13:36.013Z,25.55
2023-10-20T08:16:05.368Z,24.38
2023-10-20T08:18:35.254Z,24.83
2023-10-20T08:21:11.909Z,27.48
2023-10-20T08:23:40.628Z,24.50
2023-10-20T08:26:15.149Z,24.15
2023-10-20T08:28:43.057Z,24.30
2023-10-20T08:31:14.357Z,22.65
2023-10-20T08:33:42.328Z,24.40
2023-10-20T08:36:14.009Z,22.48
2023-10-20T08:38:42.400Z,23.67
2023-10-20T08:41:14.000Z,23.48
2023-10-20T08:43:42.709Z,23.65
2023-10-20T08:46:11.384Z,22.08
2023-10-20T08:48:40.957Z,21.13
2023-10-20T08:51:10.179Z,22.05
2023-10-20T08:53:39.953Z,22.83
2023-10-20T08:56:09.668Z,21.95
2023-10-20T08:58:37.977Z,22.23
2023-10-20T09:01:08.606Z,21.88
2023-10-20T09:03:42.087Z,20.70
2023-10-20T09:06:13.498Z,20.85
2023-10-20T09:08:44.828Z,19.38
2023-10-20T09:11:14.239Z,21.52
2023-10-20T09:13:47.759Z,21.75
2023-10-20T09:16:17.208Z,21.67
2023-10-20T09:18:50.760Z,20.98
2023-10-20T09:21:19.833Z,22.40
2023-10-20T09:24:02.078Z,21.05
2023-10-20T09:26:31.976Z,21.35
2023-10-20T09:29:00.444Z,20.00
2023-10-20T09:31:31.544Z,19.63
2023-10-20T09:34:00.246Z,19.52
2023-10-20T09:36:32.437Z,18.83
2023-10-20T09:39:06.172Z,20.27
2023-10-20T09:41:38.583Z,19.02
2023-10-20T09:44:08.857Z,19.33
2023-10-20T09:46:46.989Z,20.50
2023-10-20T09:49:20.569Z,19.77
2023-10-20T09:51:53.654Z,20.63
2023-10-20T09:54:26.969Z,20.38
2023-10-20T09:56:56.529Z,19.65
2023-10-20T09:59:29.564Z,20.27
2023-10-20T10:02:00.095Z,20.85
2023-10-20T10:04:34.837Z,21.48
2023-10-20T10:07:06.258Z,20.73
2023-10-20T10:09:40.275Z,21.88
2023-10-20T10:12:15.834Z,22.50
2023-10-20T10:14:56.961Z,23.05
2023-10-20T10:17:27.601Z,43.72
2023-10-20T10:19:57.586Z,22.83
2023-10-20T10:22:29.644Z,21.92
2023-10-20T10:25:04.679Z,21.42
2023-10-20T10:27:34.035Z,21.70
2023-10-20T10:30:06.654Z,30.47
2023-10-20T10:32:35.985Z,25.63
2023-10-20T10:35:05.607Z,22.55
2023-10-20T10:37:35.821Z,23.85
2023-10-20T10:40:09.906Z,23.73
2023-10-20T10:42:45.078Z,20.70
2023-10-20T10:45:24.148Z,21.38
2023-10-20T10:47:53.675Z,20.25
2023-10-20T10:50:22.620Z,21.10
2023-10-20T10:52:53.524Z,20.95
2023-10-20T10:55:27.010Z,20.90
2023-10-20T11:00:29.704Z,18.42
2023-10-20T11:02:59.615Z,19.08
2023-10-20T11:05:28.378Z,18.83
2023-10-20T11:08:02.875Z,19.23
2023-10-20T11:10:35.889Z,19.27
2023-10-20T11:13:08.324Z,17.77
2023-10-20T11:15:37.065Z,18.45
2023-10-20T11:18:07.235Z,19.27
2023-10-20T11:20:39.272Z,19.90
2023-10-20T11:23:10.750Z,19.75
2023-10-20T11:25:42.832Z,17.13
2023-10-20T11:28:17.558Z,18.67
2023-10-20T11:30:47.060Z,17.75
2023-10-20T11:33:18.935Z,17.98
2023-10-20T11:35:47.193Z,17.67
2023-10-20T11:38:16.348Z,16.88
2023-10-20T11:40:51.784Z,15.10
2023-10-20T11:43:19.715Z,14.93
2023-10-20T11:45:47.607Z,15.88
2023-10-20T11:48:15.800Z,14.98
2023-10-20T11:50:47.810Z,15.30
2023-10-20T11:53:16.078Z,15.02
2023-10-20T11:55:45.774Z,14.48
2023-10-20T11:58:14.026Z,13.82
2023-10-20T12:00:43.757Z,14.40
2023-10-20T12:03:11.944Z,14.82
2023-10-20T12:05:40.924Z,16.90
2023-10-20T12:08:08.848Z,15.10
2023-10-20T12:10:36.710Z,15.38
2023-10-20T12:13:06.683Z,15.57
2023-10-20T12:15:35.769Z,15.30
2023-10-20T12:18:04.228Z,15.70
2023-10-20T12:20:32.574Z,14.23
2023-10-20T12:23:00.976Z,15.55
2023-10-20T12:25:28.705Z,14.85
2023-10-20T12:27:56.644Z,14.35
2023-10-20T12:30:27.685Z,14.80
2023-10-20T12:32:55.702Z,14.27
2023-10-20T12:35:23.630Z,15.75
2023-10-20T12:37:51.649Z,13.82
2023-10-20T12:40:19.700Z,15.55
2023-10-20T12:42:47.390Z,14.75
2023-10-20T12:45:15.246Z,17.25
2023-10-20T12:47:44.628Z,16.02
2023-10-20T12:50:12.840Z,17.33
2023-10-20T12:52:40.545Z,16.88
2023-10-20T12:55:12.396Z,14.60
2023-10-20T12:57:41.442Z,14.82
2023-10-20T13:00:12.103Z,14.88
2023-10-20T13:02:41.521Z,15.30
2023-10-20T13:05:11.560Z,14.77
2023-10-20T13:07:40.004Z,15.57
2023-10-20T13:10:09.615Z,16.65
2023-10-20T13:12:37.358Z,18.45
2023-10-20T13:15:05.752Z,17.65
2023-10-20T13:17:34.615Z,13.93
2023-10-20T13:20:02.442Z,12.23
2023-10-20T13:22:32.464Z,12.23
2023-10-20T13:25:23.073Z,10.70
2023-10-20T13:27:52.271Z,11.38
2023-10-20T13:30:20.234Z,11.10
2023-10-20T13:32:48.068Z,10.73
2023-10-20T13:35:17.621Z,11.07
2023-10-20T13:37:46.765Z,9.52
2023-10-20T13:40:14.719Z,10.30
2023-10-20T13:42:42.641Z,10.23
2023-10-20T13:45:10.960Z,8.23
2023-10-20T13:47:41.337Z,7.53
2023-10-20T13:52:38.676Z,6.93
2023-10-20T13:55:09.745Z,5.93
2023-10-20T13:57:37.440Z,5.40
2023-10-20T14:00:08.878Z,6.53
2023-10-20T14:02:37.054Z,4.47
2023-10-20T14:05:08.953Z,4.25
2023-10-20T14:07:37.261Z,4.38
2023-10-20T14:10:06.133Z,4.60
2023-10-20T14:12:35.563Z,4.10
2023-10-20T14:15:04.900Z,3.85
2023-10-20T14:17:33.525Z,3.30
2023-10-20T14:20:04.549Z,3.58
2023-10-20T14:22:33.394Z,3.67
2023-10-20T14:25:01.909Z,3.10
2023-10-20T14:27:29.944Z,2.60
2023-10-20T14:29:59.583Z,2.13
2023-10-20T14:32:27.718Z,1.70
2023-10-20T14:34:56.200Z,1.30
2023-10-20T14:37:25.075Z,1.07
2023-10-20T14:39:53.338Z,0.93
2023-10-20T14:42:21.179Z,0.70
2023-10-20T14:44:51.473Z,1.10
2023-10-20T14:47:20.789Z,0.70
2023-10-20T14:49:48.637Z,0.68
2023-10-20T14:52:17.298Z,6.63
2023-10-20T14:54:45.818Z,7.72
2023-10-20T14:57:13.619Z,3.30
2023-10-20T14:59:41.405Z,0.90
2023-10-20T15:02:09.244Z,0.60
2023-10-20T15:04:38.535Z,0.90
2023-10-20T15:07:06.965Z,1.50
2023-10-20T15:09:34.803Z,1.10
2023-10-20T15:12:03.377Z,1.48
2023-10-20T15:14:31.208Z,0.95
2023-10-20T15:16:58.964Z,0.80
2023-10-20T15:19:26.799Z,1.38
2023-10-20T15:21:55.942Z,0.73
2023-10-20T15:24:23.617Z,0.60
2023-10-20T15:26:52.896Z,0.68
2023-10-20T15:29:21.306Z,0.73
2023-10-20T15:31:49.379Z,0.50
2023-10-20T15:34:17.776Z,0.75
2023-10-20T15:36:50.935Z,0.68
2023-10-20T15:39:35.979Z,1.05
2023-10-20T15:42:11.868Z,1.20
2023-10-20T15:44:39.776Z,0.80
2023-10-20T15:47:07.634Z,0.70
2023-10-20T15:49:35.787Z,0.70
2023-10-20T15:52:04.586Z,0.80
2023-10-20T15:54:35.719Z,1.02
2023-10-20T15:57:04.417Z,0.85
2023-10-20T15:59:34.016Z,0.80
2023-10-20T16:02:02.006Z,0.70
2023-10-20T16:04:30.051Z,1.00
2023-10-20T16:06:58.032Z,0.50
2023-10-20T16:09:25.851Z,0.43
2023-10-20T16:11:54.966Z,0.60
2023-10-20T16:14:22.887Z,0.50
2023-10-20T16:16:50.940Z,0.90
2023-10-20T16:19:18.917Z,0.60
2023-10-20T16:21:46.923Z,1.30
2023-10-20T16:24:15.101Z,0.85
2023-10-20T16:26:42.969Z,2.22
2023-10-20T16:29:12.563Z,1.30
2023-10-20T16:31:40.326Z,0.50
2023-10-20T16:34:07.963Z,0.40
2023-10-20T16:36:36.241Z,2.28
2023-10-20T16:39:05.931Z,1.70
2023-10-20T16:41:34.645Z,1.00
2023-10-20T16:44:02.624Z,0.70
2023-10-20T16:46:33.141Z,1.05
2023-10-20T16:49:03.262Z,1.90
2023-10-20T16:51:31.563Z,1.23
2023-10-20T16:53:59.435Z,1.85
2023-10-20T16:56:28.708Z,0.70
2023-10-20T16:58:56.498Z,0.85
2023-10-20T17:01:28.345Z,0.85
2023-10-20T17:03:57.624Z,0.90
2023-10-20T17:06:27.951Z,0.90
2023-10-20T17:08:57.701Z,0.65
2023-10-20T17:11:26.236Z,0.82
2023-10-20T17:13:54.303Z,0.88
2023-10-20T17:16:22.396Z,1.10
2023-10-20T17:18:50.787Z,1.20
2023-10-20T17:21:19.992Z,2.45
2023-10-20T17:23:47.947Z,3.30
2023-10-20T17:26:16.245Z,2.70
2023-10-20T17:28:44.191Z,2.65
2023-10-20T17:31:14.995Z,1.90
2023-10-20T17:33:46.026Z,1.95
2023-10-20T17:36:14.779Z,1.88
2023-10-20T17:38:48.926Z,1.77
2023-10-20T17:41:17.437Z,1.80
2023-10-20T17:43:45.746Z,2.58
2023-10-20T17:46:13.745Z,2.53
2023-10-20T17:48:43.081Z,2.08
2023-10-20T17:51:11.869Z,2.22
2023-10-20T17:53:39.908Z,2.90
2023-10-20T17:56:12.945Z,2.90
2023-10-20T17:58:40.792Z,2.45
2023-10-20T18:01:10.798Z,2.28
2023-10-20T18:03:42.295Z,2.78
2023-10-20T18:06:11.716Z,3.35
2023-10-20T18:08:40.298Z,3.45
2023-10-20T18:11:11.449Z,3.25
2023-10-20T18:13:43.472Z,2.90
2023-10-20T18:16:13.814Z,3.20
2023-10-20T18:18:42.700Z,2.58
2023-10-20T18:21:10.673Z,2.90
2023-10-20T18:23:40.394Z,2.55
2023-10-20T18:26:09.982Z,3.20
2023-10-20T18:28:38.085Z,2.47
2023-10-20T18:31:13.609Z,2.28
2023-10-20T18:33:42.662Z,2.20
2023-10-20T18:36:13.651Z,2.65
2023-10-20T18:38:41.552Z,2.35
2023-10-20T18:41:16.414Z,3.00
2023-10-20T18:43:44.421Z,3.15
2023-10-20T18:46:14.047Z,2.30
2023-10-20T18:48:42.436Z,2.13
2023-10-20T18:51:12.934Z,2.60
2023-10-20T18:53:43.652Z,2.90
2023-10-20T18:56:11.846Z,2.47
2023-10-20T18:58:41.240Z,2.88
2023-10-20T19:01:09.110Z,3.00
2023-10-20T19:03:37.463Z,2.90
2023-10-20T19:06:12.114Z,2.33
2023-10-20T19:08:40.688Z,2.13
2023-10-20T19:11:11.524Z,2.20
2023-10-20T19:13:41.326Z,3.17
2023-10-20T19:16:09.230Z,3.08
2023-10-20T19:18:37.351Z,3.33
2023-10-20T19:21:12.438Z,5.33
2023-10-20T19:23:41.904Z,4.53
2023-10-20T19:26:12.471Z,10.55
2023-10-20T19:31:10.671Z,2.60
2023-10-20T19:33:39.453Z,2.60
2023-10-20T19:36:11.301Z,2.33
2023-10-20T19:38:39.807Z,3.33
2023-10-20T19:41:09.452Z,2.63
2023-10-20T19:43:37.152Z,3.20
2023-10-20T19:46:08.653Z,3.70
2023-10-20T19:48:38.374Z,2.88
2023-10-20T19:51:07.006Z,2.83
2023-10-20T19:53:36.100Z,2.45
2023-10-20T19:56:03.950Z,3.00
2023-10-20T19:58:31.676Z,3.05
2023-10-20T20:00:59.832Z,2.60
2023-10-20T20:03:29.349Z,2.88
2023-10-20T20:06:10.218Z,2.55
2023-10-20T20:08:38.289Z,2.90
2023-10-20T20:11:06.082Z,2.65
2023-10-20T20:13:34.367Z,2.70
2023-10-20T20:16:12.989Z,2.30
2023-10-20T20:18:45.176Z,2.83
2023-10-20T20:21:13.553Z,2.63
2023-10-20T20:23:41.449Z,2.22
2023-10-20T20:26:09.463Z,2.00
2023-10-20T20:28:37.846Z,1.90
2023-10-20T20:31:05.818Z,2.20
2023-10-20T20:33:34.031Z,2.47
2023-10-20T20:36:04.072Z,2.40
2023-10-20T20:38:32.099Z,2.30
2023-10-20T20:41:00.119Z,2.08
2023-10-20T20:43:28.252Z,2.00
2023-10-20T20:45:57.709Z,1.75
2023-10-20T20:48:25.785Z,2.00
2023-10-20T20:50:53.664Z,1.60
2023-10-20T20:53:22.722Z,1.92
2023-10-20T20:55:50.729Z,2.65
2023-10-20T20:58:18.404Z,2.50
2023-10-20T21:00:46.207Z,2.58
2023-10-20T21:03:14.719Z,3.00
2023-10-20T21:05:42.999Z,2.55
2023-10-20T21:08:11.154Z,2.70
2023-10-20T21:10:40.464Z,2.63
2023-10-20T21:13:08.591Z,2.30
2023-10-20T21:15:37.966Z,3.17
2023-10-20T21:18:07.425Z,3.40
2023-10-20T21:20:38.502Z,3.47
2023-10-20T21:23:06.317Z,3.00
2023-10-20T21:25:37.351Z,2.92
2023-10-20T21:28:07.667Z,3.25
2023-10-20T21:30:37.707Z,2.88
2023-10-20T21:33:05.707Z,3.05
2023-10-20T21:35:38.692Z,2.85
2023-10-20T21:38:07.159Z,2.85
2023-10-20T21:40:34.991Z,2.92
2023-10-20T21:43:04.638Z,3.88
2023-10-20T21:45:33.816Z,2.80
2023-10-20T21:48:01.832Z,1.95
2023-10-20T21:50:29.803Z,1.50
2023-10-20T21:52:57.500Z,1.38
2023-10-20T21:55:25.330Z,1.30
2023-10-20T21:57:53.335Z,1.30
2023-10-20T22:00:24.706Z,1.38
2023-10-20T22:02:53.936Z,1.02
2023-10-20T22:05:21.840Z,1.15
2023-10-20T22:07:49.532Z,1.50
2023-10-20T22:10:17.385Z,1.33
2023-10-20T22:12:45.684Z,1.33
2023-10-20T22:15:13.510Z,1.00
2023-10-20T22:17:41.796Z,1.50
2023-10-20T22:20:11.829Z,1.33
2023-10-20T22:22:39.517Z,1.52
2023-10-20T22:25:07.862Z,1.40
2023-10-20T22:27:35.522Z,1.45
2023-10-20T22:30:03.258Z,1.42
2023-10-20T22:32:32.305Z,1.60
2023-10-20T22:35:02.736Z,1.88
2023-10-20T22:37:32.121Z,1.70
2023-10-20T22:40:00.250Z,2.00
2023-10-20T22:42:28.262Z,1.77
2023-10-20T22:44:57.322Z,1.75
2023-10-20T22:47:25.638Z,1.52
2023-10-20T22:49:53.429Z,1.88
2023-10-20T22:52:21.319Z,1.90
2023-10-20T22:54:50.362Z,1.92
2023-10-20T22:57:18.054Z,2.47
2023-10-20T22:59:45.798Z,2.00
2023-10-20T23:02:13.732Z,1.83
2023-10-20T23:04:41.574Z,1.67
2023-10-20T23:07:09.490Z,2.00
2023-10-20T23:09:37.285Z,1.60
2023-10-20T23:12:07.349Z,2.00
2023-10-20T23:14:35.724Z,2.22
2023-10-20T23:17:03.524Z,1.55
2023-10-20T23:19:31.186Z,1.67
2023-10-20T23:21:59.031Z,1.50
2023-10-20T23:24:26.918Z,1.60
2023-10-20T23:26:55.231Z,1.90
2023-10-20T23:29:24.855Z,1.85
2023-10-20T23:31:52.727Z,2.17
2023-10-20T23:34:20.429Z,2.08
2023-10-20T23:36:48.094Z,1.98
2023-10-20T23:39:16.166Z,1.85
2023-10-20T23:41:43.797Z,2.20
2023-10-20T23:44:11.660Z,1.90
2023-10-20T23:46:40.670Z,1.50
2023-10-20T23:49:08.342Z,1.67
2023-10-20T23:51:36.667Z,1.48
2023-10-20T23:54:04.574Z,1.40
2023-10-20T23:56:32.248Z,1.70
2023-10-20T23:59:00.214Z,1.77
